x

La Perouse Bank (46206) Wave Buoy

4:00 - Fri 31st Jul 2015 All times are PDT. -7 hours from GMT.

  • Sig Wave height 4.3ft
  • Peak Period 15s
  • Wind
    9mph, 11mph gusts
  • Sea Temp 57°f
  • Ar Temp 59°f
  • Sea Pressure 1018.5mb
  • La Perouse Bank
  • La Perouse Bank

More Historic Weather Station data

Upgrade to MSW Pro to gain access to the past 30 days of data for over 8000 Wavebouys and Weather Stations around the globe.

Join Pro

Comparision Forecast

View Surf forecast
   
Sex 07/31 4:00 4.5ft 15s 9 11 mph 1018.5mb 57f 59f
3:00 4.5ft 7s 11 13 mph 1018.2mb 57f 59f
2:00 4.5ft 16s 11 13 mph 1018.2mb 58f 59f
1:00 4.5ft 6s 13
mph
1018.2mb 57f 59f
12:00 4.5ft 14s 13 16 mph 1018.3mb 58f 60f
Qui 07/30 11:00 4.5ft 15s 13 16 mph 1018.4mb 56f 60f
10:00 4.5ft 15s 16 18 mph 1018.6mb 57f 60f
9:00 4.5ft 16s 16 18 mph 1018.4mb 58f 60f
8:00 4.5ft 16s 16 18 mph 1018.5mb 58f 60f
7:00 4ft 15s 13 16 mph 1019mb 57f 60f
6:00 4ft 15s 13 16 mph 1019.2mb 58f 60f
5:00 4ft 15s 13 16 mph 1019.6mb 58f 60f
4:00 4.5ft 16s 13
mph
1020.1mb 58f 60f
3:00 4.5ft 15s 13
mph
1020.4mb 58f 59f
2:00 4.5ft 15s 11 13 mph 1020.7mb 58f 59f
1:00 4.5ft 16s 7 9 mph 1020.8mb 58f 59f
12:00 4.5ft 16s 9
mph
1020.8mb 58f 59f
11:00 4.5ft 15s 7 9 mph 1020.8mb 57f 59f
10:00 4.5ft 7s 4 7 mph 1020.8mb 57f 59f
9:00 5ft 15s 4 7 mph 1020.7mb 57f 59f
8:00 5ft 16s 7
mph
1020.5mb 57f 59f
7:00 5ft 16s 7 9 mph 1020.3mb 57f 59f
6:00 5ft 16s 9 11 mph 1020mb 57f 59f
5:00 4.5ft 16s 9
mph
1019.8mb 57f 58f
4:00 4.5ft 16s 9 11 mph 1019.9mb 57f 59f
3:00 4.5ft 16s 11 13 mph 1019.9mb 57f 59f
2:00 4.5ft 16s 11 13 mph 1019.9mb 56f 59f
1:00 4.5ft 15s 11 13 mph 1019.9mb 56f 59f
12:00 4.5ft 16s 13
mph
1019.9mb 57f 59f
Qua 07/29 11:00 4.5ft 16s 11 13 mph 1020.2mb 57f 59f
10:00 4.5ft 16s 11 13 mph 1020.4mb 58f 60f
9:00 4.5ft 16s 13 16 mph 1020.4mb 57f 60f
8:00 4.5ft 16s 13 16 mph 1020.6mb 58f 60f
7:00 4.5ft 17s 13
mph
1021.2mb 58f 60f
6:00 4.5ft 17s 13 16 mph 1021.7mb 58f 60f
5:00 5ft 17s 13 16 mph 1022.3mb 58f 60f
4:00 4.5ft 10s 11 13 mph 1022.7mb 58f 60f
3:00 5ft 17s 11 13 mph 1023.1mb 59f 60f
2:00 5ft 16s 11 13 mph 1023.4mb 58f 60f
1:00 5ft 10s 7 9 mph 1023.3mb 58f 59f
12:00 5ft 17s 4 7 mph 1023.3mb 58f 58f
11:00 5ft 17s 7
mph
1023.2mb 57f 58f
10:00 5ft 16s 7 9 mph 1023.3mb 57f 58f
8:00 6ft 10s 9
mph
1023.2mb 56f 58f
7:00 5ft 16s 13 16 mph 1022.8mb 56f 58f
6:00 6ft 10s 13 16 mph 1022.7mb 56f 58f
5:00 6ft 10s 13 18 mph 1022.9mb 57f 59f
4:00 5.5ft 17s 13 18 mph 1022.9mb 58f 59f
3:00 5.5ft 17s 16 18 mph 1023mb 58f 59f
2:00 5ft 9s 13 18 mph 1023mb 58f 59f
1:00 5.5ft 10s 16 18 mph 1023mb 58f 59f
12:00 5ft 18s 13 16 mph 1023.3mb 58f 59f
Ter 07/28 11:00 4.5ft 10s 13 16 mph 1023.4mb 58f 59f
10:00 4.5ft 18s 13 16 mph 1023.7mb 58f 59f
9:00 4.5ft 10s 13 16 mph 1023.9mb 58f 60f
8:00 4.5ft 17s 13 16 mph 1024mb 60f 60f
7:00 4.5ft 9s 13 16 mph 1024.3mb 59f 60f
6:00 4.5ft 9s 13 16 mph 1024.7mb 59f 60f
5:00 4.5ft 10s 11 13 mph 1025mb 60f 60f
4:00 4.5ft 10s 11 13 mph 1025.3mb 60f 60f
3:00 4ft 17s 9 11 mph 1025.7mb 60f 61f
2:00 4.5ft 10s 7 9 mph 1025.9mb 59f 60f
1:00 3.5ft 10s 7 9 mph 1026.1mb 58f 60f
12:00 3.5ft 9s 4 7 mph 1026.3mb 60f 59f
11:00 3.5ft 17s 4 7 mph 1026.2mb 59f 58f
10:00 3.5ft 17s 4 7 mph 1026.2mb 58f 58f
9:00 3.5ft 17s 7
mph
1026.2mb 58f 58f
8:00 3.5ft 10s 2 4 mph 1025.9mb 58f 58f
7:00 3.5ft 17s 2 4 mph 1025.7mb 57f 57f
6:00 3.5ft 10s 2 4 mph 1025.5mb 56f 57f
5:00 3ft 11s 4 7 mph 1025.3mb 57f 57f
4:00 3ft 18s 7 9 mph 1025.2mb 56f 58f
3:00 3.5ft 18s 7 9 mph 1025.2mb 58f 58f
2:00 3.5ft 18s 9 11 mph 1025.1mb 58f 58f
1:00 3.5ft 9s 7 9 mph 1024.8mb 58f 58f
12:00 3ft 8s 7 9 mph 1024.7mb 57f 58f
Seg 07/27 11:00 3.5ft 18s 7 9 mph 1024.6mb 56f 58f
10:00 3.5ft 8s 9 11 mph 1024.9mb 56f 58f
9:00 3.5ft 18s 9 11 mph 1024.8mb 57f 58f
8:00 3.5ft 9s 11
mph
1024.9mb 57f 59f
7:00 3.5ft 18s 9
mph
1024.7mb 57f 59f
6:00 4ft 8s 9 11 mph 1024.5mb 58f 59f
5:00 3.5ft 8s 11
mph
1024.4mb 59f 60f
3:00 3.5ft 18s 9 11 mph 1024.2mb 58f 59f
2:00 4ft 7s 7 9 mph 1024.1mb 58f 58f
1:00 4.5ft 9s 9
mph
1023.6mb 57f 58f